Time;durP1;ratioP1;P1;durP2;ratioP2;P2;SDS_P1;SDS_P2;PMS_P1;PMS_P2;Temp;Humidity;BMP_temperature;BMP_pressure;BME280_temperature;BME280_humidity;BME280_pressure;Samples;Min_cycle;Max_cycle;Signal;HPM_P1;HPM_P2
2022/09/17 00:00:51;;;;;;;7.87;4.97;;;;;;;8.50;100.00;99080.56;1750517;82;21362;-67
2022/09/17 00:03:18;;;;;;;10.43;4.50;;;;;;;8.49;100.00;99087.18;1750436;82;21195;-66
2022/09/17 00:05:45;;;;;;;13.03;5.10;;;;;;;8.49;100.00;99089.80;1714269;83;21613;-67
2022/09/17 00:08:13;;;;;;;10.60;5.53;;;;;;;8.46;100.00;99105.23;1714008;83;21140;-66
2022/09/17 00:10:42;;;;;;;8.85;5.35;;;;;;;8.42;100.00;99116.80;1714149;83;21096;-67
2022/09/17 00:13:10;;;;;;;9.63;6.00;;;;;;;8.38;100.00;99108.64;1714592;83;21058;-67
2022/09/17 00:15:45;;;;;;;11.25;6.28;;;;;;;8.35;100.00;99099.57;1714360;83;21232;-67
2022/09/17 00:18:13;;;;;;;12.15;6.85;;;;;;;8.35;100.00;99097.83;1714412;83;21025;-66
2022/09/17 00:20:43;;;;;;;14.18;7.87;;;;;;;8.35;100.00;99086.45;1714625;83;21021;-67
2022/09/17 00:23:10;;;;;;;;;;;;;;;8.36;100.00;99089.48;1713354;83;21082;-68
2022/09/17 00:25:43;;;;;;;14.47;7.97;;;;;;;8.37;100.00;99087.23;1676800;85;20205;-67
2022/09/17 00:28:12;;;;;;;18.00;8.93;;;;;;;8.33;100.00;99086.55;1742814;82;21168;-67
2022/09/17 00:30:44;;;;;;;13.60;7.90;;;;;;;8.31;100.00;99081.82;1741895;82;21539;-66
2022/09/17 00:33:13;;;;;;;13.43;8.30;;;;;;;8.30;100.00;99080.56;1707294;84;21102;-67
2022/09/17 00:35:42;;;;;;;15.68;9.73;;;;;;;8.28;100.00;99075.41;1706926;84;21584;-67
2022/09/17 00:38:08;;;;;;;12.05;8.18;;;;;;;8.34;100.00;99079.52;1706899;84;21140;-66
2022/09/17 00:40:35;;;;;;;23.52;12.75;;;;;;;8.38;100.00;99085.87;1706316;84;21856;-66
2022/09/17 00:43:03;;;;;;;17.45;9.35;;;;;;;8.39;100.00;99077.53;1742385;82;21610;-67
2022/09/17 00:45:31;;;;;;;14.28;8.78;;;;;;;8.41;100.00;99073.11;1706587;83;21053;-67
2022/09/17 00:48:01;;;;;;;14.95;7.62;;;;;;;8.38;100.00;99068.81;1706930;84;21026;-67
2022/09/17 00:50:35;;;;;;;14.05;9.00;;;;;;;8.43;100.00;99069.95;1706919;84;21054;-66
2022/09/17 00:53:14;;;;;;;14.35;8.35;;;;;;;8.43;100.00;99073.89;1742555;82;21841;-67
2022/09/17 00:56:01;;;;;;;14.93;8.50;;;;;;;8.44;100.00;99082.61;1742261;82;21642;-66
2022/09/17 00:58:29;;;;;;;15.45;8.40;;;;;;;8.45;100.00;99098.29;1742383;82;21047;-67
2022/09/17 01:00:56;;;;;;;10.43;6.90;;;;;;;8.47;100.00;99095.61;1721484;82;21110;-65
2022/09/17 01:03:22;;;;;;;15.35;7.05;;;;;;;8.45;100.00;99106.16;1706889;84;21199;-65
2022/09/17 01:06:12;;;;;;;15.13;7.97;;;;;;;8.45;100.00;99107.47;1707160;84;21140;-66
2022/09/17 01:09:15;;;;;;;13.00;7.72;;;;;;;8.46;100.00;99097.36;1742398;82;21132;-67
2022/09/17 01:11:51;;;;;;;12.63;7.83;;;;;;;8.51;100.00;99087.53;1706632;84;21073;-66
2022/09/17 01:14:31;;;;;;;15.25;8.53;;;;;;;8.52;100.00;99094.47;1742401;82;21065;-67
2022/09/17 01:17:28;;;;;;;15.50;8.65;;;;;;;8.52;100.00;99097.09;1742173;82;21121;-67
2022/09/17 01:20:26;;;;;;;11.85;7.97;;;;;;;8.53;100.00;99104.50;1685844;82;21247;-67
2022/09/17 01:23:27;;;;;;;12.68;7.42;;;;;;;8.54;100.00;99118.88;1742961;82;21498;-68
2022/09/17 01:26:23;;;;;;;16.45;7.90;;;;;;;8.54;100.00;99117.56;1749532;82;21036;-70
2022/09/17 01:29:21;;;;;;;10.80;8.28;;;;;;;8.53;100.00;99106.66;1714316;83;21093;-66
2022/09/17 01:31:55;;;;;;;15.58;9.00;;;;;;;8.56;100.00;99108.31;1750471;82;21105;-68
2022/09/17 01:34:39;;;;;;;14.13;9.10;;;;;;;8.55;100.00;99107.44;1750808;82;21123;-67
2022/09/17 01:37:26;;;;;;;14.78;8.90;;;;;;;8.55;100.00;99115.31;1750412;82;21057;-67
2022/09/17 01:40:14;;;;;;;15.78;7.28;;;;;;;8.60;100.00;99121.23;1750123;82;21538;-67
2022/09/17 01:42:49;;;;;;;13.38;8.35;;;;;;;8.65;100.00;99130.64;1750429;82;21124;-66
2022/09/17 01:45:41;;;;;;;15.65;8.15;;;;;;;8.70;100.00;99128.22;1714998;83;21072;-65
2022/09/17 01:48:17;;;;;;;9.65;7.17;;;;;;;8.73;100.00;99115.41;1750462;82;21128;-67
2022/09/17 01:50:54;;;;;;;11.22;6.65;;;;;;;8.74;100.00;99122.35;1714539;82;21061;-67
2022/09/17 01:53:30;;;;;;;8.95;5.42;;;;;;;8.73;100.00;99123.29;1750662;82;21056;-68
2022/09/17 01:55:57;;;;;;;11.22;6.15;;;;;;;8.76;100.00;99127.08;1753065;81;21609;-66
2022/09/17 01:58:32;;;;;;;13.90;6.47;;;;;;;8.78;100.00;99130.02;1753327;81;21124;-66
2022/09/17 02:01:02;;;;;;;13.13;5.92;;;;;;;8.81;100.00;99118.52;1752272;81;21240;-68
2022/09/17 02:03:40;;;;;;;14.83;6.78;;;;;;;8.82;100.00;99129.43;1750492;82;21140;-65
2022/09/17 02:06:20;;;;;;;15.08;6.90;;;;;;;8.85;100.00;99126.66;1750284;82;21660;-65
2022/09/17 02:08:58;;;;;;;12.28;6.25;;;;;;;8.88;100.00;99124.34;1750384;82;21099;-66
2022/09/17 02:11:25;;;;;;;16.80;6.87;;;;;;;8.91;100.00;99127.70;1750369;82;21092;-66
2022/09/17 02:14:03;;;;;;;10.90;6.40;;;;;;;8.92;100.00;99126.76;1750506;82;21904;-68
2022/09/17 02:16:34;;;;;;;11.28;6.58;;;;;;;8.92;100.00;99125.45;1750384;82;21040;-66
2022/09/17 02:19:24;;;;;;;12.05;5.95;;;;;;;8.95;100.00;99110.88;1746129;82;21108;-66
2022/09/17 02:22:13;;;;;;;11.85;6.45;;;;;;;9.00;100.00;99114.14;1721258;82;21107;-67
2022/09/17 02:25:23;;;;;;;10.85;6.58;;;;;;;9.06;100.00;99109.52;1750384;82;21588;-67
2022/09/17 02:28:12;;;;;;;10.90;6.73;;;;;;;9.12;100.00;99115.33;1750869;82;21139;-65
2022/09/17 02:30:40;;;;;;;11.53;7.15;;;;;;;9.18;100.00;99114.21;1750474;82;21100;-67
2022/09/17 02:33:08;;;;;;;11.80;7.03;;;;;;;9.22;100.00;99124.50;1750744;82;21565;-67
2022/09/17 02:38:09;;;;;;;10.43;6.33;;;;;;;9.24;100.00;99124.41;1851676;77;28621;-67
2022/09/17 02:40:41;;;;;;;12.82;6.90;;;;;;;9.24;100.00;99120.47;1823720;78;21496;-66
2022/09/17 02:43:34;;;;;;;12.68;7.78;;;;;;;9.34;100.00;99127.00;1823604;78;21589;-66
2022/09/17 02:46:39;;;;;;;12.05;7.37;;;;;;;9.37;100.00;99123.38;1823659;78;20949;-66
2022/09/17 02:49:38;;;;;;;13.68;7.28;;;;;;;9.40;100.00;99120.11;1823934;78;21061;-65
2022/09/17 02:52:13;;;;;;;15.32;8.13;;;;;;;9.48;100.00;99121.08;1791247;80;21035;-66
2022/09/17 02:55:14;;;;;;;11.38;7.45;;;;;;;9.52;100.00;99123.92;1756325;81;21161;-66
2022/09/17 02:57:55;;;;;;;13.28;7.85;;;;;;;9.52;100.00;99115.19;1756453;81;21864;-67
2022/09/17 03:00:22;;;;;;;15.45;7.80;;;;;;;9.59;100.00;99118.78;1756468;81;21129;-67
2022/09/17 03:03:11;;;;;;;12.25;7.50;;;;;;;9.61;100.00;99109.48;1756570;81;21050;-67
2022/09/17 03:05:37;;;;;;;20.15;7.50;;;;;;;9.60;100.00;99104.70;1756462;81;21130;-66
2022/09/17 03:08:11;;;;;;;10.15;6.25;;;;;;;9.61;100.00;99095.02;1756247;81;21526;-68
2022/09/17 03:10:39;;;;;;;8.35;6.20;;;;;;;9.64;100.00;99094.89;1752149;81;21107;-65
2022/09/17 03:13:06;;;;;;;11.03;6.87;;;;;;;9.68;100.00;99088.53;1756108;81;20995;-67
2022/09/17 03:15:32;;;;;;;10.65;6.25;;;;;;;9.74;100.00;99087.39;1756363;81;21598;-68
2022/09/17 03:18:00;;;;;;;23.15;7.78;;;;;;;9.76;100.00;99095.59;1756381;81;22176;-67
2022/09/17 03:20:26;;;;;;;14.98;7.92;;;;;;;9.76;100.00;99102.63;1756602;81;21317;-66
2022/09/17 03:22:53;;;;;;;11.57;7.85;;;;;;;9.78;100.00;99109.52;1756285;81;21550;-66
2022/09/17 03:25:19;;;;;;;14.43;7.70;;;;;;;9.77;100.00;99102.53;1756592;81;21065;-67
2022/09/17 03:27:47;;;;;;;11.80;7.78;;;;;;;9.78;100.00;99112.14;1756076;81;21035;-67
2022/09/17 03:30:13;;;;;;;11.95;7.62;;;;;;;9.76;100.00;99116.63;1756221;81;21097;-66
2022/09/17 03:32:40;;;;;;;10.50;7.45;;;;;;;9.77;100.00;99106.48;1756482;81;21082;-68
2022/09/17 03:35:08;;;;;;;11.68;7.03;;;;;;;9.79;100.00;99111.20;1756036;81;21247;-66
2022/09/17 03:37:35;;;;;;;12.00;7.70;;;;;;;9.81;100.00;99114.61;1747489;81;21008;-65
2022/09/17 03:40:02;;;;;;;14.78;8.33;;;;;;;9.83;100.00;99111.44;1743082;82;21113;-66
2022/09/17 03:42:29;;;;;;;10.85;8.10;;;;;;;9.83;100.00;99108.81;1742951;82;21183;-68
2022/09/17 03:44:55;;;;;;;11.97;7.90;;;;;;;9.83;100.00;99100.92;1743096;82;21531;-66
2022/09/17 03:47:22;;;;;;;8.63;6.28;;;;;;;9.86;100.00;99109.95;1743271;82;21815;-66
2022/09/17 03:49:48;;;;;;;8.83;6.22;;;;;;;9.90;100.00;99109.35;1742345;82;21075;-66
2022/09/17 03:52:15;;;;;;;8.25;6.33;;;;;;;9.93;100.00;99112.29;1742405;82;21539;-66
2022/09/17 03:54:42;;;;;;;12.43;6.80;;;;;;;9.97;100.00;99116.47;1742336;82;21586;-66
2022/09/17 03:57:09;;;;;;;17.35;7.62;;;;;;;9.98;100.00;99119.48;1742659;82;21592;-67
2022/09/17 03:59:36;;;;;;;11.28;6.22;;;;;;;9.97;100.00;99124.36;1742433;82;21132;-68
2022/09/17 04:02:02;;;;;;;9.88;6.60;;;;;;;9.97;100.00;99117.79;1742468;82;21083;-68
2022/09/17 04:04:29;;;;;;;10.35;6.58;;;;;;;9.99;100.00;99119.88;1742046;82;21047;-65
2022/09/17 04:06:55;;;;;;;10.65;7.10;;;;;;;9.99;100.00;99125.98;1742489;82;21026;-66
2022/09/17 04:09:23;;;;;;;18.35;7.55;;;;;;;10.06;100.00;99122.58;1742914;82;21055;-67
2022/09/17 04:11:50;;;;;;;19.37;8.05;;;;;;;10.07;100.00;99107.17;1742689;82;21318;-66
2022/09/17 04:14:16;;;;;;;10.63;7.55;;;;;;;10.10;100.00;99109.66;1742625;82;21051;-67
2022/09/17 04:16:43;;;;;;;15.00;7.83;;;;;;;10.17;100.00;99127.27;1742647;82;21106;-67
2022/09/17 04:19:09;;;;;;;12.78;7.65;;;;;;;10.23;100.00;99139.66;1743325;82;21114;-68
2022/09/17 04:21:36;;;;;;;13.65;7.60;;;;;;;10.27;100.00;99142.52;1742798;82;21094;-68
2022/09/17 04:24:03;;;;;;;11.65;7.10;;;;;;;10.34;100.00;99143.56;1742870;82;21123;-68
2022/09/17 04:26:29;;;;;;;14.43;8.93;;;;;;;10.40;100.00;99152.44;1742625;82;21015;-67
2022/09/17 04:28:56;;;;;;;13.22;7.97;;;;;;;10.43;100.00;99140.45;1742717;82;21598;-67
2022/09/17 04:31:23;;;;;;;17.50;9.25;;;;;;;10.50;100.00;99151.05;1742963;82;21094;-67
2022/09/17 04:33:50;;;;;;;13.75;8.80;;;;;;;10.54;100.00;99147.33;1742575;82;21099;-67
2022/09/17 04:36:17;;;;;;;13.85;9.15;;;;;;;10.63;100.00;99148.16;1742992;82;21150;-67
2022/09/17 04:38:49;;;;;;;18.98;10.53;;;;;;;10.68;100.00;99150.08;1755647;81;21035;-67
2022/09/17 04:41:16;;;;;;;27.65;15.05;;;;;;;10.74;100.00;99158.57;1756027;81;21046;-67
2022/09/17 04:43:43;;;;;;;19.25;11.03;;;;;;;10.78;100.00;99156.17;1755827;81;21038;-67
2022/09/17 04:46:09;;;;;;;16.62;10.43;;;;;;;10.77;100.00;99155.32;1756099;81;21018;-65
2022/09/17 04:48:36;;;;;;;23.22;9.58;;;;;;;10.78;100.00;99163.59;1756087;81;21102;-68
2022/09/17 04:51:04;;;;;;;17.40;9.80;;;;;;;10.79;100.00;99157.85;1755508;81;21093;-68
2022/09/17 04:53:31;;;;;;;26.90;16.20;;;;;;;10.81;100.00;99159.94;1756318;81;21113;-66
2022/09/17 04:55:57;;;;;;;27.42;14.93;;;;;;;10.82;100.00;99151.12;1741314;81;21011;-67
2022/09/17 04:58:24;;;;;;;23.67;14.13;;;;;;;10.85;100.00;99148.32;1738719;82;21219;-65
2022/09/17 05:00:51;;;;;;;29.23;14.25;;;;;;;10.89;100.00;99149.39;1738805;82;21139;-66
2022/09/17 05:03:17;;;;;;;23.07;14.25;;;;;;;10.94;100.00;99141.23;1738737;82;21555;-67
2022/09/17 05:05:44;;;;;;;24.10;14.03;;;;;;;11.00;100.00;99136.12;1738656;82;21859;-67
2022/09/17 05:08:11;;;;;;;25.32;14.78;;;;;;;11.06;100.00;99126.54;1738569;82;21592;-66
2022/09/17 05:10:38;;;;;;;27.50;14.05;;;;;;;11.12;100.00;99132.80;1738653;82;21004;-66
2022/09/17 05:13:06;;;;;;;20.85;14.15;;;;;;;11.19;100.00;99135.47;1738507;82;21742;-68
2022/09/17 05:15:33;;;;;;;23.40;14.35;;;;;;;11.27;100.00;99141.19;1738650;82;21079;-68
2022/09/17 05:17:59;;;;;;;27.07;14.28;;;;;;;11.34;100.00;99153.08;1738977;82;21700;-68
2022/09/17 05:20:26;;;;;;;22.85;14.07;;;;;;;11.37;100.00;99153.38;1738595;82;21020;-68
2022/09/17 05:22:53;;;;;;;19.45;12.60;;;;;;;11.47;100.00;99155.87;1738505;82;21055;-67
2022/09/17 05:25:23;;;;;;;19.98;13.35;;;;;;;11.50;100.00;99153.08;1738974;82;21198;-68
2022/09/17 05:27:51;;;;;;;19.32;13.18;;;;;;;11.51;100.00;99153.45;1738708;82;21012;-68
2022/09/17 05:30:18;;;;;;;21.23;13.13;;;;;;;11.51;100.00;99157.40;1739057;82;21095;-68
2022/09/17 05:32:44;;;;;;;23.02;12.23;;;;;;;11.54;100.00;99158.53;1738669;82;21047;-66
2022/09/17 05:35:11;;;;;;;22.37;13.95;;;;;;;11.61;100.00;99156.41;1738961;82;21126;-68
2022/09/17 05:37:38;;;;;;;19.10;13.20;;;;;;;11.67;100.00;99148.63;1729685;82;21254;-67
2022/09/17 05:40:06;;;;;;;16.82;12.53;;;;;;;11.73;100.00;99153.53;1702839;84;21628;-68
2022/09/17 05:42:33;;;;;;;17.35;12.88;;;;;;;11.82;100.00;99156.12;1703069;84;21545;-67
2022/09/17 05:45:00;;;;;;;23.32;13.95;;;;;;;11.86;100.00;99157.65;1702914;84;21124;-69
2022/09/17 05:47:27;;;;;;;22.00;13.70;;;;;;;11.89;100.00;99161.00;1702830;84;21568;-67
2022/09/17 05:49:53;;;;;;;23.30;14.47;;;;;;;11.95;100.00;99159.31;1702830;84;21041;-68
2022/09/17 05:52:20;;;;;;;18.52;13.88;;;;;;;12.04;100.00;99147.85;1702837;84;21538;-67
2022/09/17 05:54:47;;;;;;;20.68;14.18;;;;;;;12.12;100.00;99140.31;1707273;83;21554;-67
2022/09/17 05:57:14;;;;;;;22.15;13.35;;;;;;;12.17;100.00;99140.92;1715797;83;21120;-66
2022/09/17 05:59:41;;;;;;;20.95;13.53;;;;;;;12.23;100.00;99144.48;1715644;83;21071;-68
2022/09/17 06:02:12;;;;;;;26.07;13.98;;;;;;;12.27;100.00;99152.61;1715486;83;21217;-67
2022/09/17 06:04:39;;;;;;;22.22;14.43;;;;;;;12.31;100.00;99167.34;1715339;83;21018;-69
2022/09/17 06:07:08;;;;;;;22.58;14.20;;;;;;;12.35;100.00;99164.02;1715469;83;21150;-67
2022/09/17 06:09:42;;;;;;;19.40;11.73;;;;;;;12.39;100.00;99167.71;1715439;83;21025;-68
2022/09/17 06:12:08;;;;;;;25.32;12.45;;;;;;;12.44;100.00;99165.27;1715502;83;21045;-68
2022/09/17 06:14:35;;;;;;;20.23;14.60;;;;;;;12.50;100.00;99174.16;1715572;83;22226;-68
2022/09/17 06:17:03;;;;;;;21.62;12.63;;;;;;;12.57;100.00;99174.16;1715310;83;21042;-68
2022/09/17 06:19:31;;;;;;;18.07;11.45;;;;;;;12.61;100.00;99169.08;1715497;83;21568;-68
2022/09/17 06:21:57;;;;;;;17.65;11.43;;;;;;;12.65;100.00;99166.60;1715448;83;21613;-68
2022/09/17 06:24:24;;;;;;;15.30;10.38;;;;;;;12.67;100.00;99170.00;1715492;83;22142;-67
2022/09/17 06:26:51;;;;;;;17.85;10.45;;;;;;;12.73;100.00;99174.92;1715414;83;21849;-67
2022/09/17 06:29:19;;;;;;;19.12;11.45;;;;;;;12.80;100.00;99176.24;1715663;83;21069;-68
2022/09/17 06:31:50;;;;;;;12.50;10.13;;;;;;;12.86;100.00;99170.20;1715336;83;21116;-69
2022/09/17 06:34:16;;;;;;;18.32;11.78;;;;;;;12.92;100.00;99157.94;1715735;83;21045;-69
2022/09/17 06:36:44;;;;;;;17.75;12.73;;;;;;;12.98;100.00;99150.96;1715337;83;21113;-68
2022/09/17 06:39:10;;;;;;;19.07;12.33;;;;;;;13.05;100.00;99148.78;1715345;83;21821;-67
2022/09/17 06:41:37;;;;;;;20.68;11.83;;;;;;;13.11;100.00;99160.27;1715578;83;21046;-66
2022/09/17 06:44:04;;;;;;;16.42;10.55;;;;;;;13.18;100.00;99156.30;1714947;83;21086;-69
2022/09/17 06:46:31;;;;;;;17.80;10.75;;;;;;;13.22;100.00;99165.25;1715261;83;21157;-68
2022/09/17 06:48:57;;;;;;;15.13;10.98;;;;;;;13.25;100.00;99169.53;1715247;83;21065;-68
2022/09/17 06:51:24;;;;;;;19.75;12.30;;;;;;;13.28;100.00;99171.16;1715634;83;21099;-67
2022/09/17 06:53:50;;;;;;;17.05;10.45;;;;;;;13.30;100.00;99174.55;1715251;83;21033;-68
2022/09/17 06:56:17;;;;;;;14.13;10.10;;;;;;;13.33;100.00;99167.73;1698401;83;21096;-68
2022/09/17 06:58:43;;;;;;;18.60;11.33;;;;;;;13.39;100.00;99162.07;1750746;82;21058;-68
2022/09/17 07:01:11;;;;;;;19.50;10.78;;;;;;;13.46;100.00;99170.44;1750820;81;21523;-68
2022/09/17 07:03:37;;;;;;;12.60;10.00;;;;;;;13.50;100.00;99159.55;1750678;82;21112;-69
2022/09/17 07:06:09;;;;;;;13.30;9.63;;;;;;;13.56;100.00;99173.72;1750706;81;21054;-68
2022/09/17 07:08:36;;;;;;;17.35;11.48;;;;;;;13.60;100.00;99173.91;1750602;82;21082;-68
2022/09/17 07:11:04;;;;;;;17.73;10.40;;;;;;;13.64;100.00;99171.44;1750684;82;21070;-67
2022/09/17 07:13:31;;;;;;;16.80;10.23;;;;;;;13.67;100.00;99168.22;1750704;81;21062;-67
2022/09/17 07:16:01;;;;;;;15.60;10.35;;;;;;;13.68;100.00;99168.10;1749469;81;21062;-68
2022/09/17 07:18:27;;;;;;;17.73;10.98;;;;;;;13.72;100.00;99170.09;1750917;82;21111;-68
2022/09/17 07:20:58;;;;;;;14.30;10.50;;;;;;;13.73;100.00;99167.80;1750692;82;21054;-68
2022/09/17 07:23:26;;;;;;;15.23;11.15;;;;;;;13.72;100.00;99174.05;1750985;82;21070;-69
2022/09/17 07:25:56;;;;;;;18.32;11.35;;;;;;;13.75;100.00;99171.20;1750990;82;21093;-68
2022/09/17 07:28:24;;;;;;;22.30;12.05;;;;;;;13.74;100.00;99173.48;1751035;81;21048;-68
2022/09/17 07:30:52;;;;;;;17.10;10.88;;;;;;;13.74;100.00;99177.45;1750771;82;21005;-69
2022/09/17 07:33:22;;;;;;;22.25;12.75;;;;;;;13.73;100.00;99174.42;1750932;82;21031;-69
2022/09/17 07:35:56;;;;;;;20.65;13.10;;;;;;;13.75;100.00;99171.20;1750981;81;21062;-67
2022/09/17 07:38:23;;;;;;;18.57;12.30;;;;;;;13.77;100.00;99170.15;1745525;82;21099;-69
2022/09/17 07:41:06;;;;;;;21.15;11.57;;;;;;;13.81;100.00;99171.66;1737701;82;21193;-67
2022/09/17 07:43:33;;;;;;;20.48;11.95;;;;;;;13.84;100.00;99179.38;1729224;82;21044;-70
2022/09/17 07:46:02;;;;;;;18.95;10.93;;;;;;;13.88;100.00;99174.75;1738057;82;21107;-68
2022/09/17 07:48:29;;;;;;;17.90;12.40;;;;;;;13.92;100.00;99164.34;1737923;82;21043;-68
2022/09/17 07:50:56;;;;;;;15.65;9.83;;;;;;;13.97;100.00;99176.78;1737981;82;21600;-69
2022/09/17 07:53:22;;;;;;;17.30;9.90;;;;;;;13.99;100.00;99173.56;1737882;82;21880;-68
2022/09/17 07:55:58;;;;;;;17.45;11.18;;;;;;;14.05;100.00;99175.78;1741506;82;21018;-67
2022/09/17 07:58:32;;;;;;;17.67;10.55;;;;;;;14.11;100.00;99169.73;1742539;82;21383;-67
2022/09/17 08:01:01;;;;;;;17.27;10.28;;;;;;;14.16;100.00;99170.27;1742483;82;21066;-68
2022/09/17 08:03:29;;;;;;;15.70;9.43;;;;;;;14.21;100.00;99168.15;1742453;82;21088;-68
2022/09/17 08:06:09;;;;;;;18.20;10.10;;;;;;;14.27;100.00;99168.59;1742750;82;21181;-68
2022/09/17 08:08:36;;;;;;;14.10;8.73;;;;;;;14.36;100.00;99168.93;1742510;82;28832;-69
2022/09/17 08:11:07;;;;;;;13.68;7.83;;;;;;;14.47;100.00;99172.54;1742391;82;21045;-69
2022/09/17 08:13:34;;;;;;;11.80;8.68;;;;;;;14.59;100.00;99169.55;1742656;82;21051;-69
2022/09/17 08:16:03;;;;;;;12.63;8.75;;;;;;;14.74;100.00;99172.09;1742817;82;21061;-69
2022/09/17 08:18:29;;;;;;;11.75;7.33;;;;;;;14.85;100.00;99169.06;1742456;82;21104;-69
2022/09/17 08:21:00;;;;;;;10.50;6.97;;;;;;;14.96;100.00;99166.15;1742536;82;21037;-68
2022/09/17 08:23:27;;;;;;;12.20;7.28;;;;;;;15.07;100.00;99171.06;1742852;82;21913;-68
2022/09/17 08:25:55;;;;;;;12.43;7.67;;;;;;;15.19;100.00;99179.95;1742425;82;21096;-67
2022/09/17 08:28:23;;;;;;;11.15;8.25;;;;;;;15.26;100.00;99173.24;1742886;82;21078;-68
2022/09/17 08:30:51;;;;;;;12.75;7.58;;;;;;;15.31;100.00;99168.45;1742587;82;21247;-68
2022/09/17 08:33:17;;;;;;;12.18;7.03;;;;;;;15.37;100.00;99171.61;1742646;82;21029;-69
2022/09/17 08:35:53;;;;;;;9.15;6.78;;;;;;;15.41;100.00;99179.72;1742621;82;21621;-68
2022/09/17 08:38:20;;;;;;;12.47;8.00;;;;;;;15.43;100.00;99172.02;1744046;82;21616;-68
2022/09/17 08:41:11;;;;;;;9.80;7.17;;;;;;;15.40;100.00;99178.88;1750375;82;21174;-69
2022/09/17 08:44:05;;;;;;;10.50;7.30;;;;;;;15.36;100.00;99180.54;1750741;82;21138;-67
2022/09/17 08:46:51;;;;;;;18.57;7.25;;;;;;;15.27;100.00;99180.23;1750431;82;21465;-69
2022/09/17 08:49:32;;;;;;;8.48;6.15;;;;;;;15.23;100.00;99176.13;1750135;82;21007;-68
2022/09/17 08:52:26;;;;;;;10.00;6.30;;;;;;;15.23;100.00;99182.76;1750157;82;21120;-69
2022/09/17 08:55:10;;;;;;;10.70;5.85;;;;;;;15.23;100.00;99176.13;1739024;82;21029;-68
2022/09/17 08:58:01;;;;;;;9.00;5.72;;;;;;;15.18;100.00;99170.27;1714871;83;21311;-67
2022/09/17 09:00:34;;;;;;;11.55;5.25;;;;;;;15.15;100.00;99175.81;1714949;83;21104;-68
2022/09/17 09:03:28;;;;;;;11.45;5.25;;;;;;;15.13;100.00;99169.77;1714250;83;21125;-68
2022/09/17 09:05:57;;;;;;;7.25;4.67;;;;;;;15.16;100.00;99172.22;1713903;83;21131;-69
2022/09/17 09:08:42;;;;;;;8.75;5.42;;;;;;;15.20;100.00;99169.69;1714676;83;21070;-67
2022/09/17 09:11:17;;;;;;;11.70;4.80;;;;;;;15.26;100.00;99161.30;1714900;83;21104;-68
2022/09/17 09:13:50;;;;;;;9.30;5.17;;;;;;;15.27;100.00;99160.82;1714783;83;21637;-69
2022/09/17 09:16:22;;;;;;;9.48;5.12;;;;;;;15.33;100.00;99169.67;1715084;83;21065;-67
2022/09/17 09:18:53;;;;;;;9.18;5.20;;;;;;;15.42;100.00;99169.50;1715007;83;21065;-68
2022/09/17 09:21:29;;;;;;;;;;;;;;;15.39;100.00;99165.72;1717540;83;21538;-68
2022/09/17 09:24:11;;;;;;;8.00;4.20;;;;;;;15.34;100.00;99169.19;1714306;83;21132;-67
2022/09/17 09:27:02;;;;;;;5.90;4.17;;;;;;;15.22;100.00;99165.61;1714811;83;21049;-69
2022/09/17 09:29:56;;;;;;;7.33;5.00;;;;;;;15.14;100.00;99176.78;1715004;83;21596;-69
2022/09/17 09:32:35;;;;;;;8.45;5.22;;;;;;;15.07;100.00;99160.94;1715008;83;21053;-69
2022/09/17 09:35:15;;;;;;;6.22;4.75;;;;;;;15.06;100.00;99169.83;1714896;83;21073;-69
2022/09/17 09:37:45;;;;;;;10.13;5.35;;;;;;;15.03;100.00;99163.44;1715051;83;21106;-68
2022/09/17 09:40:43;;;;;;;6.27;5.03;;;;;;;15.00;100.00;99163.63;1718723;83;21052;-68
2022/09/17 09:43:42;;;;;;;10.85;5.90;;;;;;;15.01;100.00;99167.99;1720475;83;21687;-68
2022/09/17 09:46:46;;;;;;;8.58;5.70;;;;;;;15.00;100.00;99164.95;1720273;83;21571;-68
2022/09/17 09:49:36;;;;;;;8.70;5.40;;;;;;;15.04;100.00;99178.37;1720132;83;21034;-69
2022/09/17 09:52:35;;;;;;;11.57;6.20;;;;;;;15.04;100.00;99173.91;1720675;83;21123;-69
2022/09/17 09:55:24;;;;;;;11.85;6.17;;;;;;;15.05;100.00;99172.13;1720292;83;21099;-68
2022/09/17 09:58:15;;;;;;;12.05;5.90;;;;;;;15.12;100.00;99173.39;1720086;83;21037;-68
2022/09/17 10:00:42;;;;;;;;;;;;;;;15.20;100.00;99172.83;1723235;83;21053;-68
2022/09/17 10:03:22;;;;;;;9.43;6.28;;;;;;;15.24;100.00;99174.31;1720188;83;20203;-68
2022/09/17 10:05:58;;;;;;;13.93;6.25;;;;;;;15.28;100.00;99183.75;1720591;83;21290;-68
2022/09/17 10:08:25;;;;;;;11.63;6.80;;;;;;;15.35;100.00;99181.03;1720058;83;21060;-69
2022/09/17 10:11:01;;;;;;;10.32;6.25;;;;;;;15.36;100.00;99187.17;1720258;83;21559;-70
2022/09/17 10:13:32;;;;;;;13.13;7.58;;;;;;;15.34;100.00;99194.39;1720257;83;21056;-67
2022/09/17 10:16:25;;;;;;;9.68;7.62;;;;;;;15.30;100.00;99192.45;1720769;82;21569;-68
2022/09/17 10:19:06;;;;;;;17.48;8.05;;;;;;;15.28;100.00;99185.08;1720252;83;21223;-68
2022/09/17 10:21:40;;;;;;;14.05;7.60;;;;;;;15.27;100.00;99169.62;1719751;83;21085;-68
2022/09/17 10:24:26;;;;;;;16.42;8.08;;;;;;;15.31;100.00;99167.61;1720139;83;21597;-68
2022/09/17 10:27:00;;;;;;;14.65;7.00;;;;;;;15.34;100.00;99169.19;1720255;83;21109;-68
2022/09/17 10:29:26;;;;;;;11.63;7.67;;;;;;;15.42;100.00;99182.77;1720239;83;21124;-69
2022/09/17 10:31:55;;;;;;;12.73;6.50;;;;;;;15.45;100.00;99185.19;1719974;83;21139;-70
2022/09/17 10:34:28;;;;;;;14.70;7.67;;;;;;;15.47;100.00;99175.31;1720076;82;21073;-68
2022/09/17 10:36:56;;;;;;;11.60;6.37;;;;;;;15.55;100.00;99168.95;1720317;83;21637;-68
2022/09/17 10:39:43;;;;;;;10.20;5.92;;;;;;;15.65;100.00;99165.17;1720081;83;21048;-68
2022/09/17 10:42:19;;;;;;;10.60;6.12;;;;;;;15.72;100.00;99166.44;1720557;82;21067;-69
2022/09/17 10:44:58;;;;;;;10.40;5.87;;;;;;;15.79;100.00;99171.66;1720423;83;21138;-67
2022/09/17 10:47:30;;;;;;;11.22;5.97;;;;;;;15.83;100.00;99169.64;1720096;83;21069;-68
2022/09/17 10:50:00;;;;;;;8.63;5.55;;;;;;;15.90;100.00;99165.56;1720323;83;21056;-68
2022/09/17 10:52:30;;;;;;;9.78;6.60;;;;;;;15.99;100.00;99170.19;1720472;83;21120;-68
2022/09/17 10:55:25;;;;;;;8.23;6.03;;;;;;;16.04;100.00;99180.47;1692901;83;21053;-69
2022/09/17 10:58:09;;;;;;;8.65;6.22;;;;;;;16.08;100.00;99178.80;1720489;83;21735;-69
2022/09/17 11:00:57;;;;;;;8.45;6.35;;;;;;;16.09;100.00;99176.49;1720363;82;21029;-68
2022/09/17 11:03:47;;;;;;;10.68;5.55;;;;;;;16.17;100.00;99180.38;1720372;83;21633;-68
2022/09/17 11:06:31;;;;;;;8.48;6.03;;;;;;;16.22;100.00;99179.09;1720256;82;21127;-69
2022/09/17 11:09:49;;;;;;;9.65;5.22;;;;;;;16.33;100.00;99178.25;1720139;83;21052;-69
2022/09/17 11:12:33;;;;;;;9.85;5.72;;;;;;;16.40;100.00;99175.48;1686212;84;21094;-68
2022/09/17 11:15:29;;;;;;;11.25;5.65;;;;;;;16.46;100.00;99172.38;1686062;85;21029;-69
2022/09/17 11:18:25;;;;;;;8.78;5.15;;;;;;;16.56;100.00;99168.06;1708843;83;21061;-70
2022/09/17 11:20:57;;;;;;;9.40;4.87;;;;;;;16.58;100.00;99163.94;1734364;82;21078;-69
2022/09/17 11:23:48;;;;;;;8.23;5.15;;;;;;;16.57;100.00;99157.78;1734728;82;21066;-68
2022/09/17 11:26:32;;;;;;;8.95;5.85;;;;;;;16.58;100.00;99156.80;1733996;82;22268;-68
2022/09/17 11:29:44;;;;;;;13.05;5.78;;;;;;;16.63;100.00;99156.94;1746120;82;21536;-69
2022/09/17 11:32:34;;;;;;;7.00;4.33;;;;;;;16.68;100.00;99157.41;1756041;81;21092;-69
2022/09/17 11:35:10;;;;;;;7.72;5.78;;;;;;;16.71;100.00;99151.88;1756459;81;21088;-68
2022/09/17 11:37:42;;;;;;;11.25;5.47;;;;;;;16.74;100.00;99152.95;1756052;81;21080;-66
2022/09/17 11:40:43;;;;;;;10.28;5.58;;;;;;;16.76;100.00;99141.73;1748295;81;21263;-69
2022/09/17 11:43:27;;;;;;;7.20;5.10;;;;;;;16.74;100.00;99141.00;1742427;82;21054;-68
2022/09/17 11:46:00;;;;;;;8.25;5.40;;;;;;;16.68;100.00;99139.68;1728705;82;21061;-69
2022/09/17 11:48:33;;;;;;;11.75;5.60;;;;;;;16.69;100.00;99133.38;1742495;82;21077;-69
2022/09/17 11:51:05;;;;;;;7.40;5.30;;;;;;;16.70;100.00;99132.89;1742855;82;21047;-70
2022/09/17 11:53:46;;;;;;;11.78;6.53;;;;;;;16.70;100.00;99131.11;1741448;82;21119;-69